Sitka, AK

7:51 AM AKDT on March 31, 2015 (GMT -0800)
Port Alexander | | Change Station
CLOSE
Current Station
Airport
Location: Port Alexander,
Elevation: 0 ft
Nearby Weather Stations

Elev 0 ft 56.25 °N, 134.65 °W | Updated 16 hours ago

Cloudy
Cloudy
42 °F
Feels Like 39 °F
N
6
Wind Variable Wind from SE
Gusts mph

Today
High -- | Low -- °F
--% Chance of Precip.
Yesterday
High -- | Low -- °F
Precip. -- in
6:33 AM 7:38 PM
Waxing Gibbous, 87% visible
Pressure 29.49 in
Visibility 7.0 miles
Clouds Scattered Clouds 1500 ft
Overcast 4500 ft
Windchill 39 °F
Dew Point 37 °F
Humidity 82%
Rainfall 0.00 in
Snow Depth Not available.
UV 1 out of 12
Pollen Not available.
Air Quality Not available.
Flu Activity Not available.
METAR PAAP 302255Z 04006KT 7SM SCT015 OVC045 06/04 A2949 RMK 70007 400860057 NO SPECI

More Conditions Fewer Conditions

Pressure 29.49 in
Visibility 7.0 miles
Clouds Scattered Clouds 1500 ft
Overcast 4500 ft
Windchill 39 °F
Dew Point 37 °F
Humidity 82%
Rainfall 0.00 in
Snow Depth Not available.
UV 1 out of 12
Pollen Not available.
Air Quality Not available.
Flu Activity Not available.
METAR PAAP 302255Z 04006KT 7SM SCT015 OVC045 06/04 A2949 RMK 70007 400860057 NO SPECI

More Conditions Fewer Conditions

10-Day Weather Forecast

Almanac

Astronomy

Mar. 31, 2015 Rise Set
Actual Time
Civil Twilight
Nautical Twilight
Astronomical Twilight
Moon
Length of Visible Light
Length of Day
Tomorrow will be .
, % of the Moon is Illuminated

Today's Extremes

State Highs State Lows

Community

WunderPhotos

Upload Photos

1,809,781 photos uploaded!

WunderBlogs® & News

Nearby

Air Quality

  Air Quality AQ Index Pollutant
Not available.

Snow Depth

Station Depth Elevation

Earthquake Activity

City Distance Mag. Time & Date
Minimum magnitude displayed is 2.5.

Coastal Water Temperatures

Place Temperature

Stations

Nearby Weather Stations

Station Location Temp. Windchill Dew Point Humidity Wind Precip. Elev Updated Type